Time;durP1;ratioP1;P1;durP2;ratioP2;P2;SDS_P1;SDS_P2;PMS_P1;PMS_P2;Temp;Humidity;BMP_temperature;BMP_pressure;BME280_temperature;BME280_humidity;BME280_pressure;Samples;Min_cycle;Max_cycle;Signal;HPM_P1;HPM_P2
2023/10/23 00:00:48;;;;;;;8.85;1.10;;;11.40;99.90;;;;;;4164965;28;20175;-89
2023/10/23 00:02:48;;;;;;;5.55;1.08;;;11.40;99.90;;;;;;4164948;28;20711;-89
2023/10/23 00:04:49;;;;;;;3.67;1.17;;;11.40;99.90;;;;;;4148480;28;20184;-89
2023/10/23 00:06:50;;;;;;;1.27;0.73;;;11.40;99.90;;;;;;4148789;28;20192;-89
2023/10/23 00:08:51;;;;;;;2.35;0.95;;;11.40;99.90;;;;;;4148369;28;20208;-93
2023/10/23 00:10:52;;;;;;;2.13;0.75;;;11.40;99.90;;;;;;4148589;28;20204;-93
2023/10/23 00:12:52;;;;;;;3.03;0.70;;;11.40;99.90;;;;;;4148680;28;20594;-92
2023/10/23 00:14:53;;;;;;;8.82;0.93;;;11.40;99.90;;;;;;4148800;28;20271;-91
2023/10/23 00:16:54;;;;;;;3.38;0.90;;;11.40;99.90;;;;;;4148675;28;20728;-92
2023/10/23 00:18:55;;;;;;;3.67;0.80;;;11.30;99.90;;;;;;4164909;28;20178;-88
2023/10/23 00:20:56;;;;;;;3.35;1.27;;;11.30;99.90;;;;;;4148707;28;20660;-94
2023/10/23 00:22:56;;;;;;;2.83;0.70;;;11.20;99.90;;;;;;4148660;28;20176;-88
2023/10/23 00:24:57;;;;;;;3.42;0.88;;;11.20;99.90;;;;;;4148708;28;20511;-90
2023/10/23 00:26:58;;;;;;;2.95;1.05;;;11.20;99.90;;;;;;4148243;28;20199;-90
2023/10/23 00:29:01;;;;;;;3.17;1.08;;;11.10;99.90;;;;;;4164421;28;20208;-92
2023/10/23 00:31:02;;;;;;;2.63;0.98;;;11.10;99.90;;;;;;4148298;28;20204;-89
2023/10/23 00:33:03;;;;;;;3.03;1.05;;;11.10;99.90;;;;;;4164582;28;20172;-90
2023/10/23 00:35:05;;;;;;;2.08;0.98;;;11.10;99.90;;;;;;4148355;28;20196;-90
2023/10/23 00:37:05;;;;;;;2.50;1.13;;;11.10;99.90;;;;;;4164740;28;20194;-93
2023/10/23 00:39:07;;;;;;;3.00;1.30;;;11.10;99.90;;;;;;4148347;28;20208;-89
2023/10/23 00:41:08;;;;;;;5.57;1.55;;;11.10;99.90;;;;;;4148406;28;20184;-90
2023/10/23 00:43:22;;;;;;;0.93;0.55;;;11.10;99.90;;;;;;4164531;28;20663;-91
2023/10/23 00:45:23;;;;;;;4.65;1.08;;;11.10;99.90;;;;;;4164678;28;20617;-90
2023/10/23 00:47:25;;;;;;;1.90;0.98;;;11.10;99.90;;;;;;4165336;28;20196;-89
2023/10/23 00:49:26;;;;;;;0.95;0.60;;;11.10;99.90;;;;;;4167958;28;20180;-88
2023/10/23 00:51:27;;;;;;;2.97;1.13;;;11.10;99.90;;;;;;4167859;28;20636;-88
2023/10/23 00:53:33;;;;;;;2.88;0.88;;;11.00;99.90;;;;;;4151498;28;20191;-93
2023/10/23 00:55:35;;;;;;;6.75;0.90;;;11.00;99.90;;;;;;4167851;28;20164;-89
2023/10/23 00:57:37;;;;;;;2.65;1.00;;;11.00;99.90;;;;;;4151575;28;20203;-88
2023/10/23 00:59:37;;;;;;;4.10;1.50;;;10.90;99.90;;;;;;4151442;28;20203;-88
2023/10/23 01:01:38;;;;;;;3.00;0.88;;;10.90;99.90;;;;;;4167928;28;20171;-88
2023/10/23 01:03:40;;;;;;;1.38;0.85;;;10.90;99.90;;;;;;4167842;28;20245;-89
2023/10/23 01:05:41;;;;;;;1.85;1.30;;;10.80;99.90;;;;;;4167673;28;20168;-89
2023/10/23 01:07:42;;;;;;;0.90;0.65;;;10.80;99.90;;;;;;4167623;28;20207;-92
2023/10/23 01:09:43;;;;;;;1.63;0.88;;;10.80;99.90;;;;;;4151335;28;20185;-90
2023/10/23 01:11:44;;;;;;;2.55;0.70;;;10.80;99.90;;;;;;4167533;28;20179;-88
2023/10/23 01:13:45;;;;;;;2.10;1.00;;;10.80;99.90;;;;;;4151140;28;20176;-89
2023/10/23 01:15:46;;;;;;;2.20;0.80;;;10.80;99.90;;;;;;4167286;28;20224;-88
2023/10/23 01:17:47;;;;;;;2.97;0.90;;;10.80;99.90;;;;;;4151031;28;20189;-92
2023/10/23 01:19:48;;;;;;;5.85;1.00;;;10.90;99.90;;;;;;4167427;28;20234;-87
2023/10/23 01:21:49;;;;;;;1.73;0.90;;;10.90;99.90;;;;;;4151295;28;20203;-90
2023/10/23 01:23:51;;;;;;;5.88;1.33;;;10.80;99.90;;;;;;4167699;28;20250;-93
2023/10/23 01:25:53;;;;;;;1.30;0.57;;;10.80;99.90;;;;;;4151246;28;20180;-89
2023/10/23 01:27:54;;;;;;;1.15;0.63;;;10.80;99.90;;;;;;4150881;28;20240;-89
2023/10/23 01:29:55;;;;;;;3.38;1.50;;;10.80;99.90;;;;;;4150980;28;20169;-89
2023/10/23 01:31:56;;;;;;;3.47;0.98;;;10.80;99.90;;;;;;4151100;28;20176;-93
2023/10/23 01:33:57;;;;;;;2.92;1.02;;;10.70;99.90;;;;;;4151035;28;20622;-89
2023/10/23 01:35:57;;;;;;;2.80;0.98;;;10.70;99.90;;;;;;4167313;28;20180;-92
2023/10/23 01:37:59;;;;;;;1.38;0.50;;;10.70;99.90;;;;;;4150562;28;20188;-92
2023/10/23 01:40:00;;;;;;;3.35;0.80;;;10.60;99.90;;;;;;4150689;28;20177;-88
2023/10/23 01:42:01;;;;;;;1.77;0.75;;;10.60;99.90;;;;;;4166984;28;20172;-92
2023/10/23 01:44:02;;;;;;;2.30;0.90;;;10.60;99.90;;;;;;4150601;28;20522;-91
2023/10/23 01:46:03;;;;;;;3.58;1.02;;;10.60;99.90;;;;;;4150602;28;20526;-92
2023/10/23 01:48:05;;;;;;;3.50;1.15;;;10.60;99.90;;;;;;4150554;28;20215;-91
2023/10/23 01:50:06;;;;;;;4.55;0.80;;;10.60;99.90;;;;;;4167106;28;20777;-89
2023/10/23 01:52:07;;;;;;;3.25;0.50;;;10.60;99.90;;;;;;4150709;28;20181;-92
2023/10/23 01:54:08;;;;;;;1.92;0.88;;;10.70;99.90;;;;;;4150636;28;20200;-89
2023/10/23 01:56:09;;;;;;;5.35;0.77;;;10.70;99.90;;;;;;4150553;28;20176;-93
2023/10/23 01:58:10;;;;;;;2.28;0.80;;;10.60;99.90;;;;;;4150476;28;20551;-89
2023/10/23 02:00:12;;;;;;;2.13;0.90;;;10.60;99.90;;;;;;4150595;28;20177;-90
2023/10/23 02:02:12;;;;;;;3.25;1.20;;;10.60;99.90;;;;;;4167364;28;20169;-93
2023/10/23 02:04:13;;;;;;;4.05;1.08;;;10.50;99.90;;;;;;4150381;28;20227;-89
2023/10/23 02:06:14;;;;;;;2.80;1.08;;;10.60;99.90;;;;;;4150269;28;20185;-89
2023/10/23 02:08:16;;;;;;;4.40;1.00;;;10.50;99.90;;;;;;4150450;28;20204;-89
2023/10/23 02:10:17;;;;;;;1.65;0.82;;;10.50;99.90;;;;;;4150325;28;20263;-89
2023/10/23 02:12:18;;;;;;;4.25;1.52;;;10.50;99.90;;;;;;4150337;28;20255;-89
2023/10/23 02:14:18;;;;;;;5.93;1.42;;;10.50;99.90;;;;;;4150448;28;20164;-89
2023/10/23 02:16:19;;;;;;;2.42;0.75;;;10.60;99.90;;;;;;4166589;28;20176;-91
2023/10/23 02:18:20;;;;;;;3.47;0.90;;;10.60;99.90;;;;;;4150168;28;20173;-89
2023/10/23 02:20:22;;;;;;;1.83;0.90;;;10.60;99.90;;;;;;4166479;28;20172;-90
2023/10/23 02:22:22;;;;;;;3.08;0.80;;;10.50;99.90;;;;;;4166472;28;20169;-89
2023/10/23 02:24:23;;;;;;;6.82;1.15;;;10.50;99.90;;;;;;4150186;28;20885;-90
2023/10/23 02:26:28;;;;;;;6.03;1.35;;;10.50;99.90;;;;;;4150201;28;20219;-89
2023/10/23 02:28:29;;;;;;;4.18;1.15;;;10.50;99.90;;;;;;4150026;28;20220;-90
2023/10/23 02:30:30;;;;;;;1.48;0.73;;;10.40;99.90;;;;;;4150273;28;20172;-89
2023/10/23 02:32:31;;;;;;;3.38;1.02;;;10.40;99.90;;;;;;4166606;28;20510;-90
2023/10/23 02:34:34;;;;;;;2.20;0.95;;;10.40;99.90;;;;;;4150063;28;20235;-90
2023/10/23 02:36:34;;;;;;;1.50;0.85;;;10.50;99.90;;;;;;4149959;28;20200;-88
2023/10/23 02:38:35;;;;;;;3.70;0.70;;;10.50;99.90;;;;;;4166445;28;20520;-93
2023/10/23 02:40:36;;;;;;;2.05;0.75;;;10.50;99.90;;;;;;4150186;28;20173;-93
2023/10/23 02:42:37;;;;;;;4.47;1.27;;;10.60;99.90;;;;;;4149954;28;20177;-93
2023/10/23 02:44:38;;;;;;;3.45;0.95;;;10.50;99.90;;;;;;4149908;28;20188;-92
2023/10/23 02:46:40;;;;;;;5.25;0.90;;;10.50;99.90;;;;;;4149826;28;20247;-90
2023/10/23 02:48:41;;;;;;;2.38;0.63;;;10.50;99.90;;;;;;4166243;28;20254;-88
2023/10/23 02:50:43;;;;;;;1.00;0.30;;;10.50;99.90;;;;;;4149998;28;20161;-89
2023/10/23 02:52:43;;;;;;;1.85;0.73;;;10.40;99.90;;;;;;4149726;28;20210;-93
2023/10/23 02:54:44;;;;;;;1.67;0.65;;;10.40;99.90;;;;;;4166032;28;20165;-93
2023/10/23 02:56:45;;;;;;;9.82;1.23;;;10.40;99.90;;;;;;4149721;28;20196;-91
2023/10/23 02:58:47;;;;;;;0.70;0.40;;;10.40;99.90;;;;;;4165880;28;20175;-89
2023/10/23 03:00:48;;;;;;;1.45;0.57;;;10.50;99.90;;;;;;4149856;28;20188;-88
2023/10/23 03:02:50;;;;;;;2.15;0.50;;;10.40;99.90;;;;;;4149669;28;20180;-90
2023/10/23 03:04:50;;;;;;;0.50;0.30;;;10.40;99.90;;;;;;4149449;28;20193;-91
2023/10/23 03:06:52;;;;;;;1.80;0.40;;;10.40;99.90;;;;;;4181900;22;20302;-88
2023/10/23 03:08:53;;;;;;;1.65;0.68;;;10.50;99.90;;;;;;4165529;28;20762;-95
2023/10/23 03:10:53;;;;;;;2.15;1.02;;;10.50;99.90;;;;;;4165210;28;20262;-88
2023/10/23 03:12:54;;;;;;;3.60;0.52;;;10.50;99.90;;;;;;4166913;28;20188;-88
2023/10/23 03:14:55;;;;;;;5.43;0.40;;;10.50;99.90;;;;;;4165452;28;20168;-88
2023/10/23 03:16:56;;;;;;;1.08;0.47;;;10.50;99.90;;;;;;4182003;28;20749;-88
2023/10/23 03:18:56;;;;;;;1.10;0.52;;;10.50;99.90;;;;;;4165999;28;20165;-88
2023/10/23 03:21:01;;;;;;;4.18;0.75;;;10.60;99.90;;;;;;4166854;28;20171;-88
2023/10/23 03:23:02;;;;;;;1.05;0.50;;;10.60;99.90;;;;;;4148918;28;20663;-88
2023/10/23 03:25:04;;;;;;;1.20;0.57;;;10.60;99.90;;;;;;4165527;28;20200;-88
2023/10/23 03:27:05;;;;;;;0.93;0.50;;;10.60;99.90;;;;;;4166351;28;20250;-89
2023/10/23 03:29:06;;;;;;;0.80;0.32;;;10.50;99.90;;;;;;4149193;28;20213;-87
2023/10/23 03:31:06;;;;;;;0.82;0.52;;;10.40;99.90;;;;;;4165282;28;20176;-88
2023/10/23 03:33:07;;;;;;;2.58;0.90;;;10.50;99.90;;;;;;4165277;28;20172;-87
2023/10/23 03:35:08;;;;;;;1.48;0.63;;;10.40;99.90;;;;;;4148973;28;20248;-88
2023/10/23 03:37:09;;;;;;;0.60;0.50;;;10.40;99.90;;;;;;4165096;28;20257;-92
2023/10/23 03:39:10;;;;;;;0.50;0.40;;;10.30;99.90;;;;;;4165345;28;20179;-87
2023/10/23 03:41:10;;;;;;;1.35;0.40;;;10.30;99.90;;;;;;4165396;28;20251;-87
2023/10/23 03:43:11;;;;;;;1.17;0.57;;;10.30;99.90;;;;;;4148744;28;20169;-87
2023/10/23 03:45:12;;;;;;;6.00;1.23;;;10.30;99.90;;;;;;4148948;28;20745;-93
2023/10/23 03:47:13;;;;;;;3.60;0.45;;;10.30;99.90;;;;;;4166163;28;20189;-93
2023/10/23 03:49:14;;;;;;;2.97;0.80;;;10.30;99.90;;;;;;4148536;28;20227;-88
2023/10/23 03:51:15;;;;;;;1.90;0.57;;;10.30;99.90;;;;;;4148654;28;20257;-87
2023/10/23 03:53:15;;;;;;;2.67;0.75;;;10.30;99.90;;;;;;4148524;28;20181;-89
2023/10/23 03:55:16;;;;;;;0.95;0.50;;;10.30;99.90;;;;;;4165060;28;20172;-91
2023/10/23 03:57:17;;;;;;;0.85;0.52;;;10.40;99.90;;;;;;4148527;28;20201;-88
2023/10/23 03:59:18;;;;;;;0.93;0.38;;;10.40;99.90;;;;;;4165071;28;20176;-88
2023/10/23 04:01:19;;;;;;;5.20;0.65;;;10.40;99.90;;;;;;4148674;28;20173;-87
2023/10/23 04:03:19;;;;;;;3.17;0.52;;;10.50;99.90;;;;;;4148265;28;20175;-88
2023/10/23 04:05:20;;;;;;;6.50;1.58;;;10.40;99.90;;;;;;4164931;28;20568;-87
2023/10/23 04:07:21;;;;;;;2.60;0.70;;;10.30;99.90;;;;;;4148377;28;20593;-87
2023/10/23 04:09:22;;;;;;;1.23;0.57;;;10.40;99.90;;;;;;4165103;28;20190;-87
2023/10/23 04:11:23;;;;;;;3.72;1.00;;;10.30;99.90;;;;;;4148720;28;20315;-88
2023/10/23 04:13:25;;;;;;;3.92;1.23;;;10.20;99.90;;;;;;4164623;28;20176;-90
2023/10/23 04:15:26;;;;;;;5.88;0.80;;;10.20;99.90;;;;;;4164393;28;20176;-88
2023/10/23 04:17:27;;;;;;;8.05;1.23;;;10.10;99.90;;;;;;4148355;28;20279;-87
2023/10/23 04:19:28;;;;;;;2.35;0.60;;;10.10;99.90;;;;;;4164819;28;20168;-88
2023/10/23 04:21:28;;;;;;;5.68;1.20;;;10.30;99.90;;;;;;4148159;28;20266;-93
2023/10/23 04:23:29;;;;;;;0.95;0.55;;;10.50;99.90;;;;;;4148080;28;20559;-88
2023/10/23 04:25:30;;;;;;;1.83;0.70;;;10.80;99.90;;;;;;4148456;28;20510;-89
2023/10/23 04:27:31;;;;;;;1.85;0.95;;;10.80;99.90;;;;;;4164239;28;20185;-94
2023/10/23 04:29:32;;;;;;;1.92;0.45;;;11.00;99.90;;;;;;4164617;28;20179;-93
2023/10/23 04:31:33;;;;;;;5.13;0.95;;;10.80;99.90;;;;;;4148357;28;20172;-93
2023/10/23 04:33:34;;;;;;;15.75;1.00;;;10.50;99.90;;;;;;4164922;28;20218;-93
2023/10/23 04:35:35;;;;;;;2.90;0.60;;;10.40;99.90;;;;;;4148278;28;20271;-88
2023/10/23 04:37:35;;;;;;;3.55;0.70;;;10.40;99.90;;;;;;4164637;28;20218;-94
2023/10/23 04:39:36;;;;;;;3.08;0.52;;;10.30;99.90;;;;;;4148437;28;20169;-88
2023/10/23 04:41:37;;;;;;;4.57;0.95;;;10.30;99.90;;;;;;4164932;28;20235;-93
2023/10/23 04:43:38;;;;;;;2.72;0.47;;;10.30;99.90;;;;;;4148265;28;20603;-87
2023/10/23 04:45:39;;;;;;;5.93;0.60;;;10.20;99.90;;;;;;4148249;28;20629;-93
2023/10/23 04:47:40;;;;;;;1.83;0.38;;;10.20;99.90;;;;;;4148203;28;20188;-93
2023/10/23 04:49:41;;;;;;;2.30;0.60;;;10.20;99.90;;;;;;4148325;28;20208;-92
2023/10/23 04:51:42;;;;;;;3.05;1.05;;;10.20;99.90;;;;;;4164511;28;20160;-93
2023/10/23 04:53:42;;;;;;;0.60;0.45;;;10.20;99.90;;;;;;4164370;28;20191;-93
2023/10/23 04:55:43;;;;;;;1.90;0.95;;;10.20;99.90;;;;;;4164527;28;20195;-93
2023/10/23 04:57:44;;;;;;;1.65;0.90;;;10.20;99.90;;;;;;4148113;28;20620;-88
2023/10/23 04:59:45;;;;;;;0.63;0.40;;;10.10;99.90;;;;;;4164376;28;20172;-88
2023/10/23 05:01:46;;;;;;;1.80;0.60;;;10.40;99.90;;;;;;4164397;28;20176;-88
2023/10/23 05:03:46;;;;;;;2.10;0.55;;;10.50;99.90;;;;;;4164670;28;20196;-87
2023/10/23 05:05:51;;;;;;;1.73;0.40;;;10.60;99.90;;;;;;4148120;28;20650;-87
2023/10/23 05:07:52;;;;;;;1.08;0.68;;;10.50;99.90;;;;;;4164371;28;20208;-94
2023/10/23 05:09:52;;;;;;;1.88;0.80;;;10.40;99.90;;;;;;4147908;28;20215;-91
2023/10/23 05:11:53;;;;;;;1.33;0.40;;;10.40;99.90;;;;;;4164240;28;20168;-88
2023/10/23 05:13:54;;;;;;;2.15;0.82;;;10.50;99.90;;;;;;4148126;28;20254;-88
2023/10/23 05:16:04;;;;;;;6.47;1.13;;;11.00;99.90;;;;;;4164837;28;20195;-87
2023/10/23 05:18:05;;;;;;;1.88;0.63;;;11.00;99.90;;;;;;4148230;28;20192;-93
2023/10/23 05:20:07;;;;;;;2.03;1.08;;;10.70;99.90;;;;;;4164719;28;20192;-93
2023/10/23 05:22:07;;;;;;;11.98;1.40;;;10.50;99.90;;;;;;4148221;28;20177;-87
2023/10/23 05:24:08;;;;;;;2.05;1.00;;;10.50;99.90;;;;;;4180899;28;20632;-87
2023/10/23 05:26:11;;;;;;;3.70;2.03;;;10.90;99.90;;;;;;4148091;28;20181;-88
2023/10/23 05:28:12;;;;;;;2.92;0.63;;;11.30;99.90;;;;;;4147601;28;20259;-87
2023/10/23 05:30:13;;;;;;;2.65;0.60;;;11.40;99.90;;;;;;4165493;28;20176;-92
2023/10/23 05:32:14;;;;;;;0.90;0.90;;;11.30;99.90;;;;;;4164119;28;20172;-87
2023/10/23 05:34:15;;;;;;;2.13;0.80;;;11.20;99.90;;;;;;4149930;28;20227;-90
2023/10/23 05:36:15;;;;;;;1.48;0.70;;;10.90;99.90;;;;;;4151209;28;20251;-88
2023/10/23 05:38:16;;;;;;;2.70;0.77;;;10.90;99.90;;;;;;4167396;28;20173;-87
2023/10/23 05:40:17;;;;;;;4.50;0.88;;;11.10;99.90;;;;;;4167135;28;20541;-88
2023/10/23 05:42:18;;;;;;;3.78;1.50;;;11.20;99.90;;;;;;4150839;28;20538;-87
2023/10/23 05:44:18;;;;;;;2.55;0.40;;;11.10;99.90;;;;;;4150960;28;20272;-89
2023/10/23 05:46:20;;;;;;;4.38;0.50;;;10.70;99.90;;;;;;4167595;28;20187;-87
2023/10/23 05:48:21;;;;;;;1.17;0.80;;;10.40;99.90;;;;;;4150073;28;20315;-87
2023/10/23 05:50:22;;;;;;;1.00;0.63;;;10.30;99.90;;;;;;4151100;28;20176;-88
2023/10/23 05:52:23;;;;;;;0.47;0.40;;;10.10;99.90;;;;;;4150982;28;20709;-87
2023/10/23 05:54:25;;;;;;;0.90;0.45;;;10.10;99.90;;;;;;4167201;28;20184;-93
2023/10/23 05:56:25;;;;;;;3.67;0.57;;;10.30;99.90;;;;;;4166845;28;20172;-87
2023/10/23 05:58:26;;;;;;;2.40;1.05;;;10.20;99.90;;;;;;4150679;28;20657;-93
2023/10/23 06:00:27;;;;;;;1.42;0.60;;;10.10;99.90;;;;;;4150588;28;20277;-87
2023/10/23 06:02:29;;;;;;;1.52;0.60;;;10.70;99.90;;;;;;4150550;28;20187;-87
2023/10/23 06:04:30;;;;;;;5.10;0.95;;;11.20;99.90;;;;;;4150598;28;20179;-93
2023/10/23 06:06:31;;;;;;;5.20;0.52;;;11.40;99.90;;;;;;4167928;28;20525;-87
2023/10/23 06:08:32;;;;;;;2.95;0.70;;;11.50;99.90;;;;;;4150411;28;20216;-86
2023/10/23 06:10:39;;;;;;;0.93;0.60;;;11.40;99.90;;;;;;4166730;28;20255;-87
2023/10/23 06:12:40;;;;;;;1.77;0.80;;;11.20;99.90;;;;;;4150555;28;20177;-88
2023/10/23 06:14:41;;;;;;;3.42;1.10;;;11.10;99.90;;;;;;4167080;28;20588;-87
2023/10/23 06:16:42;;;;;;;0.90;0.70;;;11.00;99.90;;;;;;4150432;28;20211;-86
2023/10/23 06:18:43;;;;;;;0.73;0.43;;;11.00;99.90;;;;;;4150404;28;20173;-87
2023/10/23 06:20:44;;;;;;;2.92;0.77;;;10.90;99.90;;;;;;4150429;28;20254;-94
2023/10/23 06:22:45;;;;;;;5.85;1.30;;;10.40;99.90;;;;;;4166591;28;20230;-87
2023/10/23 06:24:45;;;;;;;1.80;0.85;;;9.90;99.90;;;;;;4150344;28;20608;-88
2023/10/23 06:26:46;;;;;;;0.90;0.40;;;9.70;99.90;;;;;;4166844;28;20568;-87
2023/10/23 06:28:47;;;;;;;3.00;1.20;;;9.50;99.90;;;;;;4149738;28;20213;-88
2023/10/23 06:30:48;;;;;;;5.20;0.63;;;9.40;99.90;;;;;;4150141;28;20181;-87
2023/10/23 06:32:49;;;;;;;1.25;0.68;;;9.40;99.90;;;;;;4166482;28;20183;-87
2023/10/23 06:34:51;;;;;;;5.18;0.85;;;9.40;99.90;;;;;;4150111;28;20172;-87
2023/10/23 06:36:52;;;;;;;3.42;1.02;;;9.40;99.90;;;;;;4166392;28;20191;-88
2023/10/23 06:38:53;;;;;;;1.10;0.70;;;9.40;99.90;;;;;;4166093;28;20208;-88
2023/10/23 06:40:53;;;;;;;3.08;1.25;;;9.50;99.90;;;;;;4149983;28;20224;-93
2023/10/23 06:42:54;;;;;;;7.35;0.88;;;9.50;99.90;;;;;;4166150;28;20252;-94
2023/10/23 06:44:57;;;;;;;4.28;0.93;;;9.70;99.90;;;;;;4149281;28;20176;-91
2023/10/23 06:46:57;;;;;;;7.00;1.38;;;9.70;99.90;;;;;;4149820;28;20196;-87
2023/10/23 06:48:59;;;;;;;2.83;0.90;;;9.80;99.90;;;;;;4149702;28;20247;-88
2023/10/23 06:51:00;;;;;;;4.35;1.10;;;9.90;99.90;;;;;;4165883;28;20179;-87
2023/10/23 06:53:01;;;;;;;5.38;1.38;;;10.00;99.90;;;;;;4149951;28;20660;-94
2023/10/23 06:55:03;;;;;;;1.92;0.50;;;10.10;99.90;;;;;;4166373;28;20263;-89
2023/10/23 06:57:06;;;;;;;2.10;1.00;;;10.20;99.90;;;;;;4149829;28;20649;-88
2023/10/23 06:59:08;;;;;;;3.40;1.00;;;10.10;99.90;;;;;;4166263;28;20628;-86
2023/10/23 07:01:09;;;;;;;6.25;1.02;;;10.20;99.90;;;;;;4149972;28;20220;-88
2023/10/23 07:03:10;;;;;;;1.00;0.50;;;10.30;99.90;;;;;;4149653;28;20173;-86
2023/10/23 07:05:11;;;;;;;1.08;0.52;;;10.40;99.90;;;;;;4166226;28;20260;-86
2023/10/23 07:07:13;;;;;;;5.07;0.70;;;10.40;99.90;;;;;;4165985;28;20212;-93
2023/10/23 07:09:14;;;;;;;3.20;0.65;;;10.70;99.90;;;;;;4149725;28;20258;-89
2023/10/23 07:11:16;;;;;;;1.85;0.88;;;10.60;99.90;;;;;;4166040;28;20644;-93
2023/10/23 07:13:17;;;;;;;5.95;1.25;;;10.60;99.90;;;;;;4152014;28;20177;-88
2023/10/23 07:15:17;;;;;;;2.20;0.50;;;10.40;99.90;;;;;;4151985;28;20169;-86
2023/10/23 07:17:18;;;;;;;2.13;1.15;;;10.40;99.90;;;;;;4167717;28;20185;-86
2023/10/23 07:19:19;;;;;;;1.55;0.52;;;10.20;99.90;;;;;;4160616;28;20191;-88
2023/10/23 07:21:23;;;;;;;3.15;0.90;;;10.20;99.90;;;;;;4149382;28;20235;-86
2023/10/23 07:23:24;;;;;;;2.28;0.93;;;10.20;99.90;;;;;;4149390;28;20528;-89
2023/10/23 07:25:25;;;;;;;2.70;0.50;;;10.20;99.90;;;;;;4165483;28;20196;-88
2023/10/23 07:27:26;;;;;;;3.30;1.15;;;10.30;99.90;;;;;;4165431;28;20664;-88
2023/10/23 07:29:26;;;;;;;3.92;1.15;;;10.50;99.90;;;;;;4149304;28;20213;-91
2023/10/23 07:31:27;;;;;;;4.90;0.90;;;10.70;99.90;;;;;;4165655;28;20172;-88
2023/10/23 07:33:28;;;;;;;0.75;0.52;;;10.80;99.90;;;;;;4149305;28;20277;-88
2023/10/23 07:35:29;;;;;;;4.88;0.95;;;11.00;99.90;;;;;;4149379;28;20180;-87
2023/10/23 07:37:30;;;;;;;2.47;1.17;;;11.10;99.90;;;;;;4165305;28;20192;-93
2023/10/23 07:39:31;;;;;;;1.73;0.98;;;11.20;99.90;;;;;;4148756;28;20177;-88
2023/10/23 07:41:32;;;;;;;6.07;0.98;;;11.20;99.90;;;;;;4165327;28;20274;-88
2023/10/23 07:43:32;;;;;;;0.95;0.40;;;11.30;99.90;;;;;;4148942;28;20168;-93
2023/10/23 07:45:38;;;;;;;1.40;0.75;;;11.30;99.90;;;;;;4148711;28;20200;-88
2023/10/23 07:47:39;;;;;;;3.40;1.13;;;11.50;99.90;;;;;;4164944;28;20207;-88
2023/10/23 07:49:40;;;;;;;1.15;0.68;;;11.50;99.90;;;;;;4166207;28;20164;-88
2023/10/23 07:51:40;;;;;;;1.77;0.55;;;11.60;99.90;;;;;;4165677;28;20191;-88
2023/10/23 07:53:41;;;;;;;2.92;1.02;;;11.60;99.90;;;;;;4150221;28;20169;-88
2023/10/23 07:55:42;;;;;;;8.43;0.90;;;11.50;99.90;;;;;;4149188;28;20649;-88
2023/10/23 07:57:43;;;;;;;2.58;1.15;;;11.60;99.90;;;;;;4149081;28;20189;-92
2023/10/23 07:59:44;;;;;;;5.13;1.05;;;11.80;99.90;;;;;;4149430;28;20185;-93
2023/10/23 08:01:46;;;;;;;3.42;0.70;;;11.90;99.90;;;;;;4149029;28;20625;-87
2023/10/23 08:03:47;;;;;;;3.00;0.77;;;11.90;99.90;;;;;;4148382;28;20176;-93
2023/10/23 08:05:48;;;;;;;5.47;0.93;;;11.90;99.90;;;;;;4148835;28;20233;-90
2023/10/23 08:07:49;;;;;;;1.95;0.93;;;11.90;99.90;;;;;;4164935;28;20210;-91
2023/10/23 08:09:50;;;;;;;6.00;1.17;;;12.10;99.90;;;;;;4148688;28;20180;-86
2023/10/23 08:11:51;;;;;;;9.68;0.82;;;12.20;99.90;;;;;;4164797;28;20196;-91
2023/10/23 08:13:51;;;;;;;1.67;0.50;;;12.40;99.90;;;;;;4148773;28;20176;-86
2023/10/23 08:15:53;;;;;;;2.83;0.80;;;12.50;99.90;;;;;;4165126;28;20620;-87
2023/10/23 08:17:54;;;;;;;1.05;0.60;;;12.70;99.90;;;;;;4166620;28;20242;-91
2023/10/23 08:19:55;;;;;;;6.32;1.00;;;12.70;99.90;;;;;;4164876;28;20620;-92
2023/10/23 08:21:55;;;;;;;1.35;0.60;;;12.90;99.90;;;;;;4148943;28;20165;-88
2023/10/23 08:23:56;;;;;;;4.38;0.60;;;13.10;99.90;;;;;;4148587;28;20229;-88
2023/10/23 08:25:57;;;;;;;4.13;1.02;;;13.20;99.90;;;;;;4164979;28;20238;-86
2023/10/23 08:27:58;;;;;;;1.48;1.08;;;13.30;99.90;;;;;;4164783;28;20207;-87
2023/10/23 08:29:59;;;;;;;2.72;0.85;;;13.60;99.90;;;;;;4165119;28;20180;-87
2023/10/23 08:31:59;;;;;;;2.83;0.75;;;13.60;99.90;;;;;;4148554;28;20177;-86
2023/10/23 08:34:00;;;;;;;2.33;0.90;;;13.70;99.90;;;;;;4164999;28;20549;-86
2023/10/23 08:36:01;;;;;;;2.63;0.80;;;14.00;99.90;;;;;;4164504;28;20265;-88
2023/10/23 08:38:02;;;;;;;3.60;0.65;;;14.00;99.90;;;;;;4148126;28;20199;-89
2023/10/23 08:40:06;;;;;;;1.58;0.85;;;14.10;99.90;;;;;;4148359;28;20177;-86
2023/10/23 08:42:06;;;;;;;2.65;0.80;;;14.60;99.90;;;;;;4164384;28;20160;-87
2023/10/23 08:44:07;;;;;;;2.72;0.80;;;14.70;99.90;;;;;;4164849;28;20187;-87
2023/10/23 08:46:08;;;;;;;5.10;1.08;;;14.40;99.90;;;;;;4148325;28;20216;-88
2023/10/23 08:48:09;;;;;;;3.17;1.48;;;14.20;99.90;;;;;;4164405;28;20212;-88
2023/10/23 08:50:11;;;;;;;3.67;1.13;;;14.20;99.90;;;;;;4148443;28;20515;-88
2023/10/23 08:52:12;;;;;;;11.68;2.00;;;14.10;99.90;;;;;;4148237;28;20566;-88
2023/10/23 08:54:17;;;;;;;2.50;0.93;;;14.10;99.90;;;;;;4164468;28;20255;-93
2023/10/23 08:56:19;;;;;;;1.70;0.70;;;13.60;99.90;;;;;;4164635;28;20203;-88
2023/10/23 08:58:22;;;;;;;2.03;0.77;;;13.70;99.90;;;;;;4148272;28;20557;-87
2023/10/23 09:00:23;;;;;;;3.97;1.40;;;13.70;99.90;;;;;;4147984;28;20177;-93
2023/10/23 09:02:25;;;;;;;8.38;0.90;;;13.20;99.90;;;;;;4164373;28;20164;-88
2023/10/23 09:04:25;;;;;;;1.33;0.75;;;13.50;99.90;;;;;;4150721;28;20196;-92
2023/10/23 09:06:26;;;;;;;2.25;0.80;;;13.40;99.90;;;;;;4166202;28;20682;-86
2023/10/23 09:08:29;;;;;;;5.38;0.60;;;13.20;99.90;;;;;;4165255;28;20238;-89
2023/10/23 09:10:29;;;;;;;1.20;0.70;;;13.20;99.90;;;;;;4151385;28;20165;-88
2023/10/23 09:12:32;;;;;;;2.08;0.80;;;13.40;99.90;;;;;;4167540;28;20647;-88
2023/10/23 09:14:35;;;;;;;6.03;0.60;;;13.10;99.90;;;;;;4172098;28;20164;-92
2023/10/23 09:16:36;;;;;;;4.53;1.33;;;13.00;99.90;;;;;;4153738;28;20254;-87
2023/10/23 09:18:51;;;;;;;4.75;0.90;;;13.00;99.90;;;;;;4168616;28;20640;-86
2023/10/23 09:20:52;;;;;;;2.40;0.82;;;12.90;99.90;;;;;;4167666;28;20176;-87
2023/10/23 09:22:54;;;;;;;3.00;1.00;;;13.20;99.90;;;;;;4167301;28;20310;-87
2023/10/23 09:24:54;;;;;;;2.42;1.10;;;13.40;99.90;;;;;;4151082;28;20177;-86
2023/10/23 09:26:56;;;;;;;3.70;0.82;;;13.70;99.90;;;;;;4167350;28;20192;-89
2023/10/23 09:28:56;;;;;;;1.15;0.88;;;14.00;99.90;;;;;;4167475;28;20208;-87
2023/10/23 09:30:59;;;;;;;4.10;0.75;;;14.40;99.90;;;;;;4151141;28;20172;-87
2023/10/23 09:33:00;;;;;;;8.77;1.38;;;14.30;99.90;;;;;;4167460;28;20180;-87
2023/10/23 09:35:02;;;;;;;3.00;0.95;;;14.10;99.90;;;;;;4150862;28;20593;-87
2023/10/23 09:37:05;;;;;;;1.85;0.60;;;13.90;99.90;;;;;;4152177;28;20196;-87
2023/10/23 09:39:06;;;;;;;6.90;0.75;;;13.70;99.90;;;;;;4151308;28;20223;-87
2023/10/23 09:41:11;;;;;;;3.00;0.80;;;13.60;99.90;;;;;;4168978;28;20180;-87
2023/10/23 09:43:13;;;;;;;1.35;0.70;;;13.60;99.90;;;;;;4152966;28;20165;-87
2023/10/23 09:45:15;;;;;;;6.38;0.98;;;13.80;99.90;;;;;;4151469;28;20184;-87
2023/10/23 09:47:18;;;;;;;1.60;0.45;;;14.10;99.90;;;;;;4150989;28;20192;-87
2023/10/23 09:49:21;;;;;;;3.70;0.77;;;14.30;99.90;;;;;;4150427;28;20314;-87
2023/10/23 09:51:29;;;;;;;2.22;1.00;;;14.50;99.90;;;;;;4167447;28;20176;-88
2023/10/23 09:53:31;;;;;;;3.00;1.00;;;14.70;99.90;;;;;;4167278;28;20210;-88
2023/10/23 09:55:35;;;;;;;6.55;1.20;;;14.70;99.90;;;;;;4150627;28;20296;-94
2023/10/23 09:57:37;;;;;;;5.78;1.10;;;14.80;99.90;;;;;;4166691;28;20743;-89
2023/10/23 09:59:42;;;;;;;5.32;0.80;;;14.60;99.90;;;;;;4150756;28;20180;-87
2023/10/23 10:01:47;;;;;;;2.83;0.80;;;14.30;99.90;;;;;;4168322;28;20231;-90
2023/10/23 10:03:49;;;;;;;10.95;0.90;;;14.20;99.90;;;;;;4150385;28;20223;-87
2023/10/23 10:06:02;;;;;;;3.28;0.90;;;14.20;99.90;;;;;;4166990;28;20253;-88
2023/10/23 10:08:07;;;;;;;3.83;0.80;;;14.40;99.90;;;;;;4150394;28;20208;-96
2023/10/23 10:10:10;;;;;;;3.55;0.93;;;14.70;99.90;;;;;;4150741;28;20180;-95
2023/10/23 10:12:11;;;;;;;1.77;0.63;;;14.90;99.90;;;;;;4150546;28;20177;-93
2023/10/23 10:14:13;;;;;;;3.33;1.52;;;14.70;99.90;;;;;;4166974;28;20180;-88
2023/10/23 10:16:14;;;;;;;3.03;0.73;;;14.60;99.90;;;;;;4166777;28;20169;-95
2023/10/23 10:18:16;;;;;;;4.45;0.82;;;14.40;99.90;;;;;;4167193;28;20179;-95
2023/10/23 10:20:24;;;;;;;9.80;0.85;;;14.10;99.90;;;;;;4166258;28;20179;-88
2023/10/23 10:22:31;;;;;;;8.55;0.85;;;13.90;99.90;;;;;;4150738;28;20175;-89
2023/10/23 10:24:34;;;;;;;7.18;1.10;;;14.20;99.90;;;;;;4166738;28;20655;-87
2023/10/23 10:26:35;;;;;;;2.70;0.65;;;14.60;99.90;;;;;;4149961;28;20184;-87
2023/10/23 10:28:39;;;;;;;8.65;1.73;;;14.70;99.90;;;;;;4166075;28;20211;-87
2023/10/23 10:30:45;;;;;;;13.15;1.77;;;15.10;99.90;;;;;;4149797;28;20236;-89
2023/10/23 10:32:55;;;;;;;12.13;1.77;;;15.50;99.90;;;;;;4166174;28;20183;-95